createdAt,value
2019-04-14T00:00:29.284Z,5.70
2019-04-14T00:02:59.791Z,5.70
2019-04-14T00:05:31.046Z,5.60
2019-04-14T00:07:58.475Z,5.60
2019-04-14T00:10:26.992Z,5.50
2019-04-14T00:12:55.682Z,5.50
2019-04-14T00:15:30.898Z,5.50
2019-04-14T00:17:54.610Z,5.50
2019-04-14T00:20:23.294Z,5.40
2019-04-14T00:22:51.744Z,5.40
2019-04-14T00:25:20.170Z,5.40
2019-04-14T00:27:49.924Z,5.40
2019-04-14T00:30:18.865Z,5.30
2019-04-14T00:32:49.069Z,5.20
2019-04-14T00:35:34.355Z,5.10
2019-04-14T00:38:04.486Z,5.10
2019-04-14T00:40:51.821Z,5.00
2019-04-14T00:43:22.100Z,4.80
2019-04-14T00:45:55.274Z,4.70
2019-04-14T00:48:24.649Z,4.70
2019-04-14T00:50:54.309Z,4.50
2019-04-14T00:53:22.920Z,4.40
2019-04-14T00:55:51.427Z,4.40
2019-04-14T00:58:19.890Z,4.40
2019-04-14T01:00:50.099Z,4.40
2019-04-14T01:03:19.865Z,4.50
2019-04-14T01:05:48.479Z,4.50
2019-04-14T01:08:17.005Z,4.50
2019-04-14T01:10:45.529Z,4.50
2019-04-14T01:13:14.200Z,4.50
2019-04-14T01:15:51.178Z,4.50
2019-04-14T01:18:12.976Z,4.50
2019-04-14T01:20:42.730Z,4.50
2019-04-14T01:23:11.309Z,4.50
2019-04-14T01:25:40.966Z,4.40
2019-04-14T01:28:09.597Z,4.40
2019-04-14T01:30:39.366Z,4.30
2019-04-14T01:33:07.990Z,4.30
2019-04-14T01:35:36.418Z,4.20
2019-04-14T01:38:05.903Z,4.10
2019-04-14T01:40:34.563Z,4.10
2019-04-14T01:43:03.857Z,4.00
2019-04-14T01:45:32.350Z,4.00
2019-04-14T01:48:01.699Z,4.00
2019-04-14T01:50:34.971Z,3.80
2019-04-14T01:53:07.593Z,3.70
2019-04-14T01:55:37.715Z,3.70
2019-04-14T01:58:16.530Z,3.50
2019-04-14T02:00:46.729Z,3.50
2019-04-14T02:03:15.342Z,3.60
2019-04-14T02:05:43.782Z,3.60
2019-04-14T02:08:13.413Z,3.60
2019-04-14T02:10:43.351Z,3.60
2019-04-14T02:13:11.999Z,3.50
2019-04-14T02:15:40.437Z,3.50
2019-04-14T02:18:09.946Z,3.60
2019-04-14T02:20:38.570Z,3.60
2019-04-14T02:23:08.143Z,3.70
2019-04-14T02:25:38.098Z,3.70
2019-04-14T02:28:06.919Z,3.60
2019-04-14T02:30:41.748Z,3.60
2019-04-14T02:33:40.887Z,3.50
2019-04-14T02:36:11.414Z,3.50
2019-04-14T02:41:07.358Z,3.50
2019-04-14T02:48:50.833Z,3.40
2019-04-14T02:51:06.234Z,3.20
2019-04-14T02:53:44.314Z,3.10
2019-04-14T02:56:08.160Z,3.00
2019-04-14T02:58:38.674Z,2.90
2019-04-14T03:01:09.875Z,2.80
2019-04-14T03:03:40.992Z,2.80
2019-04-14T03:11:01.202Z,2.70
2019-04-14T03:13:37.544Z,2.70
2019-04-14T03:16:02.430Z,2.50
2019-04-14T03:24:08.799Z,2.70
2019-04-14T03:26:41.903Z,2.70
2019-04-14T03:29:21.339Z,2.80
2019-04-14T03:39:27.343Z,2.80
2019-04-14T03:41:54.755Z,2.70
2019-04-14T03:47:02.949Z,2.60
2019-04-14T03:49:24.623Z,2.50
2019-04-14T03:51:55.838Z,2.40
2019-04-14T03:54:15.862Z,2.40
2019-04-14T03:56:47.129Z,2.30
2019-04-14T03:59:17.354Z,2.50
2019-04-14T04:01:47.760Z,2.50
2019-04-14T04:04:16.595Z,2.60
2019-04-14T04:06:46.296Z,2.70
2019-04-14T04:09:15.001Z,2.80
2019-04-14T04:11:43.615Z,2.90
2019-04-14T04:14:12.075Z,3.00
2019-04-14T04:16:59.477Z,3.20
2019-04-14T04:19:29.704Z,3.30
2019-04-14T04:22:02.483Z,3.40
2019-04-14T04:24:36.847Z,3.40
2019-04-14T04:27:11.090Z,3.60
2019-04-14T04:29:44.373Z,3.60
2019-04-14T04:32:20.747Z,3.60
2019-04-14T04:34:51.264Z,3.70
2019-04-14T04:37:24.365Z,3.80
2019-04-14T04:39:56.133Z,3.80
2019-04-14T04:42:24.838Z,3.70
2019-04-14T04:44:53.348Z,3.80
2019-04-14T04:47:23.032Z,3.80
2019-04-14T04:49:51.750Z,3.80
2019-04-14T04:52:21.233Z,4.00
2019-04-14T04:54:49.776Z,4.00
2019-04-14T04:57:18.232Z,4.00
2019-04-14T04:59:47.421Z,4.10
2019-04-14T05:02:15.967Z,4.10
2019-04-14T05:04:44.444Z,4.20
2019-04-14T05:07:12.969Z,4.20
2019-04-14T05:10:00.172Z,4.40
2019-04-14T05:12:33.079Z,4.20
2019-04-14T05:15:03.654Z,4.20
2019-04-14T05:17:40.952Z,4.40
2019-04-14T05:20:09.716Z,4.40
2019-04-14T05:22:38.153Z,4.40
2019-04-14T05:25:07.811Z,4.40
2019-04-14T05:27:36.588Z,4.30
2019-04-14T05:30:06.883Z,4.20
2019-04-14T05:32:35.405Z,4.20
2019-04-14T05:35:05.225Z,4.40
2019-04-14T05:37:33.902Z,4.50
2019-04-14T05:40:03.680Z,4.50
2019-04-14T05:42:32.377Z,4.60
2019-04-14T05:45:00.837Z,4.60
2019-04-14T05:47:30.440Z,4.70
2019-04-14T05:49:59.365Z,4.60
2019-04-14T05:52:28.019Z,4.60
2019-04-14T05:54:57.861Z,4.70
2019-04-14T05:57:26.443Z,4.70
2019-04-14T05:59:54.888Z,4.70
2019-04-14T06:02:24.426Z,4.90
2019-04-14T06:04:53.241Z,4.90
2019-04-14T06:07:21.767Z,5.00
2019-04-14T06:09:50.209Z,5.00
2019-04-14T06:12:18.663Z,5.10
2019-04-14T06:14:47.174Z,5.20
2019-04-14T06:17:15.662Z,5.20
2019-04-14T06:19:44.105Z,5.10
2019-04-14T06:22:33.386Z,5.20
2019-04-14T06:25:01.858Z,5.40
2019-04-14T06:27:30.375Z,5.50
2019-04-14T06:30:02.057Z,5.50
2019-04-14T06:32:38.114Z,5.60
2019-04-14T06:35:20.646Z,5.60
2019-04-14T06:37:50.735Z,5.60
2019-04-14T06:40:20.517Z,5.70
2019-04-14T06:42:48.970Z,5.70
2019-04-14T06:45:17.412Z,5.70
2019-04-14T06:47:45.838Z,5.60
2019-04-14T06:50:14.350Z,5.80
2019-04-14T06:52:42.886Z,5.90
2019-04-14T06:55:11.336Z,5.90
2019-04-14T06:57:39.778Z,5.90
2019-04-14T07:00:08.275Z,5.90
2019-04-14T07:02:36.702Z,6.10
2019-04-14T07:05:06.406Z,6.10
2019-04-14T07:07:34.886Z,6.10
2019-04-14T07:10:04.275Z,6.10
2019-04-14T07:12:32.703Z,6.20
2019-04-14T07:15:01.162Z,6.30
2019-04-14T07:17:29.662Z,6.40
2019-04-14T07:20:02.347Z,6.40
2019-04-14T07:22:28.243Z,6.60
2019-04-14T07:24:56.697Z,6.70
2019-04-14T07:27:25.250Z,6.70
2019-04-14T07:30:11.685Z,6.70
2019-04-14T07:32:57.893Z,6.80
2019-04-14T07:35:38.727Z,6.90
2019-04-14T07:38:11.767Z,6.90
2019-04-14T07:40:58.079Z,7.00
2019-04-14T07:43:43.291Z,7.00
2019-04-14T07:46:31.826Z,7.00
2019-04-14T07:49:18.507Z,7.20
2019-04-14T07:52:04.753Z,7.20
2019-04-14T07:54:46.899Z,7.30
2019-04-14T07:57:35.214Z,7.50
2019-04-14T08:00:07.841Z,7.40
2019-04-14T08:02:43.567Z,7.50
2019-04-14T08:05:13.665Z,7.50
2019-04-14T08:07:42.999Z,7.60
2019-04-14T08:10:11.909Z,7.60
2019-04-14T08:12:40.346Z,7.50
2019-04-14T08:15:09.205Z,7.60
2019-04-14T08:17:37.685Z,7.70
2019-04-14T08:20:09.227Z,7.80
2019-04-14T08:22:37.730Z,7.90
2019-04-14T08:25:06.639Z,8.10
2019-04-14T08:27:35.083Z,8.10
2019-04-14T08:30:04.957Z,8.00
2019-04-14T08:32:34.079Z,8.10
2019-04-14T08:35:02.512Z,8.00
2019-04-14T08:37:30.963Z,7.90
2019-04-14T08:39:59.397Z,8.10
2019-04-14T08:42:46.017Z,8.30
2019-04-14T08:45:16.250Z,8.30
2019-04-14T08:47:54.897Z,8.20
2019-04-14T08:50:25.051Z,8.10
2019-04-14T08:52:55.204Z,8.30
2019-04-14T08:55:27.747Z,8.30
2019-04-14T09:00:52.036Z,8.50
2019-04-14T09:03:28.087Z,8.40
2019-04-14T09:06:10.232Z,8.60
2019-04-14T09:08:46.189Z,8.50
2019-04-14T09:11:19.066Z,8.50
2019-04-14T09:13:47.489Z,8.40
2019-04-14T09:16:15.953Z,8.40
2019-04-14T09:18:44.437Z,8.60
2019-04-14T09:21:12.894Z,8.60
2019-04-14T09:23:41.333Z,8.60
2019-04-14T09:26:09.790Z,8.60
2019-04-14T09:28:38.237Z,8.80
2019-04-14T09:31:06.673Z,8.80
2019-04-14T09:33:35.111Z,8.70
2019-04-14T09:36:03.602Z,8.50
2019-04-14T09:38:32.037Z,8.50
2019-04-14T09:41:00.475Z,8.50
2019-04-14T09:43:28.930Z,8.40
2019-04-14T09:45:57.360Z,8.30
2019-04-14T09:48:25.822Z,8.40
2019-04-14T09:51:04.229Z,8.40
2019-04-14T09:53:24.417Z,8.30
2019-04-14T09:55:52.870Z,8.30
2019-04-14T09:58:21.306Z,8.40
2019-04-14T10:00:49.749Z,8.40
2019-04-14T10:03:19.526Z,8.40
2019-04-14T10:05:47.958Z,8.20
2019-04-14T10:08:16.469Z,8.00
2019-04-14T10:10:44.990Z,7.80
2019-04-14T10:13:13.527Z,7.70
2019-04-14T10:15:41.957Z,7.70
2019-04-14T10:18:10.415Z,7.90
2019-04-14T10:20:39.814Z,7.90
2019-04-14T10:23:08.248Z,8.10
2019-04-14T10:25:36.815Z,8.10
2019-04-14T10:28:05.262Z,8.20
2019-04-14T10:30:33.716Z,8.20
2019-04-14T10:33:02.220Z,8.20
2019-04-14T10:35:30.656Z,8.30
2019-04-14T10:37:59.082Z,8.40
2019-04-14T10:40:27.515Z,8.40
2019-04-14T10:42:56.035Z,8.50
2019-04-14T10:45:24.503Z,8.40
2019-04-14T10:47:53.022Z,8.30
2019-04-14T10:50:30.855Z,8.20
